sensor_id;sensor_type;location;lat;lon;timestamp;P1;durP1;ratioP1;P2;durP2;ratioP2
27857;SDS011;16852;51.446;6.528;2023-03-13T00:00:49;11.53;;;3.00;;
27857;SDS011;16852;51.446;6.528;2023-03-13T00:02:50;21.00;;;4.47;;
27857;SDS011;16852;51.446;6.528;2023-03-13T00:04:51;14.48;;;3.30;;
27857;SDS011;16852;51.446;6.528;2023-03-13T00:06:51;19.02;;;4.07;;
27857;SDS011;16852;51.446;6.528;2023-03-13T00:08:52;15.82;;;3.22;;
27857;SDS011;16852;51.446;6.528;2023-03-13T00:10:53;18.27;;;3.80;;
27857;SDS011;16852;51.446;6.528;2023-03-13T00:12:54;12.07;;;3.53;;
27857;SDS011;16852;51.446;6.528;2023-03-13T00:14:54;13.45;;;3.05;;
27857;SDS011;16852;51.446;6.528;2023-03-13T00:16:55;14.75;;;3.20;;
27857;SDS011;16852;51.446;6.528;2023-03-13T00:18:57;17.80;;;3.83;;
27857;SDS011;16852;51.446;6.528;2023-03-13T00:21:02;17.20;;;3.58;;
27857;SDS011;16852;51.446;6.528;2023-03-13T00:23:04;10.35;;;3.30;;
27857;SDS011;16852;51.446;6.528;2023-03-13T00:25:05;13.23;;;3.30;;
27857;SDS011;16852;51.446;6.528;2023-03-13T00:27:05;14.27;;;3.28;;
27857;SDS011;16852;51.446;6.528;2023-03-13T00:29:06;17.83;;;3.63;;
27857;SDS011;16852;51.446;6.528;2023-03-13T00:31:10;13.63;;;3.17;;
27857;SDS011;16852;51.446;6.528;2023-03-13T00:33:16;15.90;;;3.47;;
27857;SDS011;16852;51.446;6.528;2023-03-13T00:35:17;12.35;;;3.35;;
27857;SDS011;16852;51.446;6.528;2023-03-13T00:37:18;14.38;;;3.47;;
27857;SDS011;16852;51.446;6.528;2023-03-13T00:39:18;13.57;;;3.83;;
27857;SDS011;16852;51.446;6.528;2023-03-13T00:41:20;14.88;;;3.70;;
27857;SDS011;16852;51.446;6.528;2023-03-13T00:43:26;13.48;;;3.63;;
27857;SDS011;16852;51.446;6.528;2023-03-13T00:45:27;16.50;;;3.50;;
27857;SDS011;16852;51.446;6.528;2023-03-13T00:47:27;12.90;;;3.97;;
27857;SDS011;16852;51.446;6.528;2023-03-13T00:49:28;11.32;;;3.33;;
27857;SDS011;16852;51.446;6.528;2023-03-13T00:51:28;18.75;;;3.70;;
27857;SDS011;16852;51.446;6.528;2023-03-13T00:53:29;15.35;;;3.50;;
27857;SDS011;16852;51.446;6.528;2023-03-13T00:55:30;14.07;;;3.80;;
27857;SDS011;16852;51.446;6.528;2023-03-13T00:57:30;13.07;;;3.45;;
27857;SDS011;16852;51.446;6.528;2023-03-13T00:59:31;15.55;;;3.55;;
27857;SDS011;16852;51.446;6.528;2023-03-13T01:01:34;15.35;;;3.30;;
27857;SDS011;16852;51.446;6.528;2023-03-13T01:03:36;14.70;;;3.55;;
27857;SDS011;16852;51.446;6.528;2023-03-13T01:05:38;15.52;;;4.00;;
27857;SDS011;16852;51.446;6.528;2023-03-13T01:07:38;18.23;;;3.38;;
27857;SDS011;16852;51.446;6.528;2023-03-13T01:09:39;13.63;;;3.10;;
27857;SDS011;16852;51.446;6.528;2023-03-13T01:11:40;11.63;;;3.20;;
27857;SDS011;16852;51.446;6.528;2023-03-13T01:13:41;18.00;;;4.47;;
27857;SDS011;16852;51.446;6.528;2023-03-13T01:15:42;14.73;;;3.05;;
27857;SDS011;16852;51.446;6.528;2023-03-13T01:17:43;11.40;;;3.10;;
27857;SDS011;16852;51.446;6.528;2023-03-13T01:19:44;11.82;;;2.85;;
27857;SDS011;16852;51.446;6.528;2023-03-13T01:21:45;12.90;;;3.22;;
27857;SDS011;16852;51.446;6.528;2023-03-13T01:23:46;14.63;;;3.65;;
27857;SDS011;16852;51.446;6.528;2023-03-13T01:25:47;14.65;;;3.45;;
27857;SDS011;16852;51.446;6.528;2023-03-13T01:27:48;17.45;;;3.50;;
27857;SDS011;16852;51.446;6.528;2023-03-13T01:29:48;22.23;;;4.55;;
27857;SDS011;16852;51.446;6.528;2023-03-13T01:31:49;11.07;;;3.40;;
27857;SDS011;16852;51.446;6.528;2023-03-13T01:33:50;20.88;;;3.90;;
27857;SDS011;16852;51.446;6.528;2023-03-13T01:36:02;17.85;;;4.00;;
27857;SDS011;16852;51.446;6.528;2023-03-13T01:38:03;17.05;;;3.70;;
27857;SDS011;16852;51.446;6.528;2023-03-13T01:40:04;14.20;;;3.20;;
27857;SDS011;16852;51.446;6.528;2023-03-13T01:42:05;13.88;;;3.50;;
27857;SDS011;16852;51.446;6.528;2023-03-13T01:44:09;18.38;;;3.80;;
27857;SDS011;16852;51.446;6.528;2023-03-13T01:46:23;15.82;;;3.30;;
27857;SDS011;16852;51.446;6.528;2023-03-13T01:50:31;15.27;;;3.60;;
27857;SDS011;16852;51.446;6.528;2023-03-13T01:52:31;14.07;;;3.38;;
27857;SDS011;16852;51.446;6.528;2023-03-13T01:54:43;10.50;;;3.15;;
27857;SDS011;16852;51.446;6.528;2023-03-13T01:57:03;11.82;;;3.00;;
27857;SDS011;16852;51.446;6.528;2023-03-13T02:01:09;16.00;;;3.42;;
27857;SDS011;16852;51.446;6.528;2023-03-13T02:03:13;13.40;;;3.50;;
27857;SDS011;16852;51.446;6.528;2023-03-13T02:05:17;11.77;;;3.15;;
27857;SDS011;16852;51.446;6.528;2023-03-13T02:07:29;11.60;;;3.28;;
27857;SDS011;16852;51.446;6.528;2023-03-13T02:09:42;14.02;;;3.55;;
27857;SDS011;16852;51.446;6.528;2023-03-13T02:11:52;12.30;;;3.20;;
27857;SDS011;16852;51.446;6.528;2023-03-13T02:13:57;12.95;;;3.03;;
27857;SDS011;16852;51.446;6.528;2023-03-13T02:15:59;10.45;;;2.65;;
27857;SDS011;16852;51.446;6.528;2023-03-13T02:18:00;9.43;;;2.80;;
27857;SDS011;16852;51.446;6.528;2023-03-13T02:20:01;12.43;;;3.45;;
27857;SDS011;16852;51.446;6.528;2023-03-13T02:22:23;10.98;;;3.03;;
27857;SDS011;16852;51.446;6.528;2023-03-13T02:24:36;12.77;;;3.17;;
27857;SDS011;16852;51.446;6.528;2023-03-13T02:26:45;15.45;;;3.15;;
27857;SDS011;16852;51.446;6.528;2023-03-13T02:28:45;14.30;;;3.10;;
27857;SDS011;16852;51.446;6.528;2023-03-13T02:30:47;9.35;;;2.92;;
27857;SDS011;16852;51.446;6.528;2023-03-13T02:32:50;8.57;;;2.35;;
27857;SDS011;16852;51.446;6.528;2023-03-13T02:34:51;13.68;;;2.80;;
27857;SDS011;16852;51.446;6.528;2023-03-13T02:36:56;14.07;;;3.15;;
27857;SDS011;16852;51.446;6.528;2023-03-13T02:38:59;13.50;;;2.75;;
27857;SDS011;16852;51.446;6.528;2023-03-13T02:41:03;9.45;;;2.28;;
27857;SDS011;16852;51.446;6.528;2023-03-13T02:43:10;8.30;;;2.55;;
27857;SDS011;16852;51.446;6.528;2023-03-13T02:45:15;10.40;;;2.72;;
27857;SDS011;16852;51.446;6.528;2023-03-13T02:47:17;10.67;;;2.33;;
27857;SDS011;16852;51.446;6.528;2023-03-13T02:49:26;12.00;;;2.30;;
27857;SDS011;16852;51.446;6.528;2023-03-13T02:51:30;8.30;;;1.92;;
27857;SDS011;16852;51.446;6.528;2023-03-13T02:53:33;6.78;;;1.70;;
27857;SDS011;16852;51.446;6.528;2023-03-13T02:55:39;6.18;;;1.98;;
27857;SDS011;16852;51.446;6.528;2023-03-13T02:57:41;8.43;;;2.03;;
27857;SDS011;16852;51.446;6.528;2023-03-13T02:59:41;3.60;;;1.42;;
27857;SDS011;16852;51.446;6.528;2023-03-13T03:01:42;5.35;;;1.50;;
27857;SDS011;16852;51.446;6.528;2023-03-13T03:03:42;3.95;;;1.30;;
27857;SDS011;16852;51.446;6.528;2023-03-13T03:05:43;3.72;;;1.63;;
27857;SDS011;16852;51.446;6.528;2023-03-13T03:07:44;5.70;;;1.42;;
27857;SDS011;16852;51.446;6.528;2023-03-13T03:09:44;8.77;;;2.05;;
27857;SDS011;16852;51.446;6.528;2023-03-13T03:11:45;4.45;;;1.55;;
27857;SDS011;16852;51.446;6.528;2023-03-13T03:13:46;6.45;;;1.88;;
27857;SDS011;16852;51.446;6.528;2023-03-13T03:15:46;5.25;;;1.55;;
27857;SDS011;16852;51.446;6.528;2023-03-13T03:17:47;4.03;;;1.55;;
27857;SDS011;16852;51.446;6.528;2023-03-13T03:19:47;4.68;;;1.55;;
27857;SDS011;16852;51.446;6.528;2023-03-13T03:21:48;5.30;;;1.58;;
27857;SDS011;16852;51.446;6.528;2023-03-13T03:23:49;6.25;;;1.67;;
27857;SDS011;16852;51.446;6.528;2023-03-13T03:25:50;5.85;;;1.60;;
27857;SDS011;16852;51.446;6.528;2023-03-13T03:27:50;5.40;;;1.65;;
27857;SDS011;16852;51.446;6.528;2023-03-13T03:29:51;4.28;;;1.75;;
27857;SDS011;16852;51.446;6.528;2023-03-13T03:31:52;6.07;;;1.50;;
27857;SDS011;16852;51.446;6.528;2023-03-13T03:33:53;4.53;;;1.73;;
27857;SDS011;16852;51.446;6.528;2023-03-13T03:35:57;2.78;;;1.58;;
27857;SDS011;16852;51.446;6.528;2023-03-13T03:37:59;4.50;;;1.80;;
27857;SDS011;16852;51.446;6.528;2023-03-13T03:40:00;4.20;;;1.50;;
27857;SDS011;16852;51.446;6.528;2023-03-13T03:42:00;5.13;;;1.67;;
27857;SDS011;16852;51.446;6.528;2023-03-13T03:44:01;2.53;;;1.63;;
27857;SDS011;16852;51.446;6.528;2023-03-13T03:46:02;4.38;;;1.95;;
27857;SDS011;16852;51.446;6.528;2023-03-13T03:48:03;5.55;;;1.90;;
27857;SDS011;16852;51.446;6.528;2023-03-13T03:50:04;3.53;;;1.80;;
27857;SDS011;16852;51.446;6.528;2023-03-13T03:52:06;4.30;;;2.05;;
27857;SDS011;16852;51.446;6.528;2023-03-13T03:54:07;5.53;;;2.05;;
27857;SDS011;16852;51.446;6.528;2023-03-13T03:56:07;3.92;;;1.70;;
27857;SDS011;16852;51.446;6.528;2023-03-13T03:58:08;4.10;;;1.60;;
27857;SDS011;16852;51.446;6.528;2023-03-13T04:00:09;4.50;;;1.65;;
27857;SDS011;16852;51.446;6.528;2023-03-13T04:02:13;5.43;;;1.55;;
27857;SDS011;16852;51.446;6.528;2023-03-13T04:04:13;2.83;;;1.52;;
27857;SDS011;16852;51.446;6.528;2023-03-13T04:06:14;3.60;;;2.00;;
27857;SDS011;16852;51.446;6.528;2023-03-13T04:08:14;4.63;;;1.63;;
27857;SDS011;16852;51.446;6.528;2023-03-13T04:10:15;3.20;;;1.55;;
27857;SDS011;16852;51.446;6.528;2023-03-13T04:12:16;3.53;;;1.60;;
27857;SDS011;16852;51.446;6.528;2023-03-13T04:14:16;3.05;;;1.35;;
27857;SDS011;16852;51.446;6.528;2023-03-13T04:16:17;4.07;;;1.58;;
27857;SDS011;16852;51.446;6.528;2023-03-13T04:18:17;2.00;;;1.10;;
27857;SDS011;16852;51.446;6.528;2023-03-13T04:20:18;3.67;;;1.92;;
27857;SDS011;16852;51.446;6.528;2023-03-13T04:22:19;2.00;;;1.60;;
27857;SDS011;16852;51.446;6.528;2023-03-13T04:24:19;3.55;;;1.90;;
27857;SDS011;16852;51.446;6.528;2023-03-13T04:26:20;1.95;;;1.30;;
27857;SDS011;16852;51.446;6.528;2023-03-13T04:28:20;2.72;;;1.70;;
27857;SDS011;16852;51.446;6.528;2023-03-13T04:30:21;3.25;;;1.77;;
27857;SDS011;16852;51.446;6.528;2023-03-13T04:32:22;4.57;;;2.20;;
27857;SDS011;16852;51.446;6.528;2023-03-13T04:34:23;5.50;;;1.95;;
27857;SDS011;16852;51.446;6.528;2023-03-13T04:36:23;4.13;;;1.70;;
27857;SDS011;16852;51.446;6.528;2023-03-13T04:38:24;3.10;;;1.65;;
27857;SDS011;16852;51.446;6.528;2023-03-13T04:40:24;2.75;;;1.90;;
27857;SDS011;16852;51.446;6.528;2023-03-13T04:42:25;2.45;;;1.67;;
27857;SDS011;16852;51.446;6.528;2023-03-13T04:44:26;4.10;;;1.85;;
27857;SDS011;16852;51.446;6.528;2023-03-13T04:46:26;3.45;;;1.90;;
27857;SDS011;16852;51.446;6.528;2023-03-13T04:48:27;2.50;;;1.80;;
27857;SDS011;16852;51.446;6.528;2023-03-13T04:50:28;3.00;;;1.60;;
27857;SDS011;16852;51.446;6.528;2023-03-13T04:52:28;6.35;;;2.25;;
27857;SDS011;16852;51.446;6.528;2023-03-13T04:54:29;3.03;;;1.88;;
27857;SDS011;16852;51.446;6.528;2023-03-13T04:56:29;1.70;;;1.45;;
27857;SDS011;16852;51.446;6.528;2023-03-13T04:58:30;1.67;;;1.50;;
27857;SDS011;16852;51.446;6.528;2023-03-13T05:00:31;3.30;;;2.03;;
27857;SDS011;16852;51.446;6.528;2023-03-13T05:02:31;2.35;;;1.80;;
27857;SDS011;16852;51.446;6.528;2023-03-13T05:04:32;2.97;;;1.80;;
27857;SDS011;16852;51.446;6.528;2023-03-13T05:06:32;2.38;;;1.77;;
27857;SDS011;16852;51.446;6.528;2023-03-13T05:08:33;2.60;;;1.70;;
27857;SDS011;16852;51.446;6.528;2023-03-13T05:10:35;2.50;;;2.00;;
27857;SDS011;16852;51.446;6.528;2023-03-13T05:12:36;4.20;;;2.20;;
27857;SDS011;16852;51.446;6.528;2023-03-13T05:14:37;2.35;;;1.70;;
27857;SDS011;16852;51.446;6.528;2023-03-13T05:16:37;1.98;;;1.48;;
27857;SDS011;16852;51.446;6.528;2023-03-13T05:18:38;2.55;;;1.67;;
27857;SDS011;16852;51.446;6.528;2023-03-13T05:20:39;4.88;;;1.83;;
27857;SDS011;16852;51.446;6.528;2023-03-13T05:22:39;4.38;;;1.92;;
27857;SDS011;16852;51.446;6.528;2023-03-13T05:24:40;4.13;;;2.03;;
27857;SDS011;16852;51.446;6.528;2023-03-13T05:26:40;2.67;;;1.90;;
27857;SDS011;16852;51.446;6.528;2023-03-13T05:28:41;3.67;;;1.90;;
27857;SDS011;16852;51.446;6.528;2023-03-13T05:30:42;5.80;;;1.92;;
27857;SDS011;16852;51.446;6.528;2023-03-13T05:32:42;2.75;;;2.00;;
27857;SDS011;16852;51.446;6.528;2023-03-13T05:34:43;2.42;;;1.80;;
27857;SDS011;16852;51.446;6.528;2023-03-13T05:36:43;1.60;;;1.50;;
27857;SDS011;16852;51.446;6.528;2023-03-13T05:38:44;4.95;;;1.70;;
27857;SDS011;16852;51.446;6.528;2023-03-13T05:40:44;4.05;;;1.70;;
27857;SDS011;16852;51.446;6.528;2023-03-13T05:42:45;3.15;;;1.90;;
27857;SDS011;16852;51.446;6.528;2023-03-13T05:44:45;2.13;;;1.55;;
27857;SDS011;16852;51.446;6.528;2023-03-13T05:46:46;1.80;;;1.48;;
27857;SDS011;16852;51.446;6.528;2023-03-13T05:48:46;3.53;;;1.75;;
27857;SDS011;16852;51.446;6.528;2023-03-13T05:50:47;3.22;;;1.55;;
27857;SDS011;16852;51.446;6.528;2023-03-13T05:52:48;4.85;;;1.88;;
27857;SDS011;16852;51.446;6.528;2023-03-13T05:54:48;3.83;;;1.58;;
27857;SDS011;16852;51.446;6.528;2023-03-13T05:56:49;3.78;;;1.90;;
27857;SDS011;16852;51.446;6.528;2023-03-13T05:58:51;2.13;;;1.70;;
27857;SDS011;16852;51.446;6.528;2023-03-13T06:00:51;5.72;;;2.00;;
27857;SDS011;16852;51.446;6.528;2023-03-13T06:02:52;2.72;;;1.33;;
27857;SDS011;16852;51.446;6.528;2023-03-13T06:04:52;5.97;;;2.33;;
27857;SDS011;16852;51.446;6.528;2023-03-13T06:06:53;10.13;;;1.77;;
27857;SDS011;16852;51.446;6.528;2023-03-13T06:08:53;2.60;;;1.73;;
27857;SDS011;16852;51.446;6.528;2023-03-13T06:10:54;5.78;;;2.22;;
27857;SDS011;16852;51.446;6.528;2023-03-13T06:12:58;4.22;;;1.60;;
27857;SDS011;16852;51.446;6.528;2023-03-13T06:14:59;3.13;;;1.80;;
27857;SDS011;16852;51.446;6.528;2023-03-13T06:16:59;3.42;;;1.85;;
27857;SDS011;16852;51.446;6.528;2023-03-13T06:19:00;3.40;;;1.90;;
27857;SDS011;16852;51.446;6.528;2023-03-13T06:21:01;2.92;;;1.70;;
27857;SDS011;16852;51.446;6.528;2023-03-13T06:23:02;5.47;;;2.00;;
27857;SDS011;16852;51.446;6.528;2023-03-13T06:25:02;5.20;;;2.20;;
27857;SDS011;16852;51.446;6.528;2023-03-13T06:27:04;3.30;;;1.52;;
27857;SDS011;16852;51.446;6.528;2023-03-13T06:29:06;4.03;;;1.97;;
27857;SDS011;16852;51.446;6.528;2023-03-13T06:31:06;2.35;;;1.40;;
27857;SDS011;16852;51.446;6.528;2023-03-13T06:33:07;5.28;;;1.85;;
27857;SDS011;16852;51.446;6.528;2023-03-13T06:35:08;3.30;;;1.83;;
27857;SDS011;16852;51.446;6.528;2023-03-13T06:37:08;4.85;;;1.85;;
27857;SDS011;16852;51.446;6.528;2023-03-13T06:39:10;3.72;;;1.70;;
27857;SDS011;16852;51.446;6.528;2023-03-13T06:41:11;4.28;;;1.88;;
27857;SDS011;16852;51.446;6.528;2023-03-13T06:43:11;5.13;;;2.08;;
27857;SDS011;16852;51.446;6.528;2023-03-13T06:45:12;2.55;;;1.55;;
27857;SDS011;16852;51.446;6.528;2023-03-13T06:47:13;5.30;;;1.77;;
27857;SDS011;16852;51.446;6.528;2023-03-13T06:49:13;2.72;;;1.80;;
27857;SDS011;16852;51.446;6.528;2023-03-13T06:51:14;4.57;;;2.00;;
27857;SDS011;16852;51.446;6.528;2023-03-13T06:53:18;3.55;;;1.98;;
27857;SDS011;16852;51.446;6.528;2023-03-13T06:55:19;4.70;;;1.88;;
27857;SDS011;16852;51.446;6.528;2023-03-13T06:57:20;4.38;;;2.13;;
27857;SDS011;16852;51.446;6.528;2023-03-13T06:59:20;5.90;;;2.00;;
27857;SDS011;16852;51.446;6.528;2023-03-13T07:01:21;4.28;;;2.10;;
27857;SDS011;16852;51.446;6.528;2023-03-13T07:03:21;2.63;;;1.45;;
27857;SDS011;16852;51.446;6.528;2023-03-13T07:05:23;3.70;;;1.48;;
27857;SDS011;16852;51.446;6.528;2023-03-13T07:07:24;4.88;;;1.63;;
27857;SDS011;16852;51.446;6.528;2023-03-13T07:09:24;5.97;;;1.83;;
27857;SDS011;16852;51.446;6.528;2023-03-13T07:11:25;3.03;;;1.67;;
27857;SDS011;16852;51.446;6.528;2023-03-13T07:13:26;4.13;;;1.90;;
27857;SDS011;16852;51.446;6.528;2023-03-13T07:15:26;4.63;;;1.90;;
27857;SDS011;16852;51.446;6.528;2023-03-13T07:17:27;7.68;;;2.50;;
27857;SDS011;16852;51.446;6.528;2023-03-13T07:19:28;4.82;;;1.83;;
27857;SDS011;16852;51.446;6.528;2023-03-13T07:21:28;5.95;;;2.13;;
27857;SDS011;16852;51.446;6.528;2023-03-13T07:23:29;4.57;;;1.80;;
27857;SDS011;16852;51.446;6.528;2023-03-13T07:25:31;4.65;;;1.60;;
27857;SDS011;16852;51.446;6.528;2023-03-13T07:27:31;4.72;;;2.30;;
27857;SDS011;16852;51.446;6.528;2023-03-13T07:29:32;6.55;;;2.08;;
27857;SDS011;16852;51.446;6.528;2023-03-13T07:31:32;4.90;;;2.25;;
27857;SDS011;16852;51.446;6.528;2023-03-13T07:33:34;7.93;;;1.90;;
27857;SDS011;16852;51.446;6.528;2023-03-13T07:35:34;3.95;;;1.65;;
27857;SDS011;16852;51.446;6.528;2023-03-13T07:37:35;6.30;;;2.10;;
27857;SDS011;16852;51.446;6.528;2023-03-13T07:39:36;4.90;;;1.83;;
27857;SDS011;16852;51.446;6.528;2023-03-13T07:41:36;7.70;;;2.22;;
27857;SDS011;16852;51.446;6.528;2023-03-13T07:43:39;6.45;;;2.17;;
27857;SDS011;16852;51.446;6.528;2023-03-13T07:45:48;6.05;;;1.88;;
27857;SDS011;16852;51.446;6.528;2023-03-13T07:47:59;5.07;;;1.90;;
27857;SDS011;16852;51.446;6.528;2023-03-13T07:49:59;6.30;;;2.30;;
27857;SDS011;16852;51.446;6.528;2023-03-13T07:52:00;8.38;;;2.00;;
27857;SDS011;16852;51.446;6.528;2023-03-13T07:54:00;5.43;;;2.03;;
27857;SDS011;16852;51.446;6.528;2023-03-13T07:56:03;6.90;;;2.22;;
27857;SDS011;16852;51.446;6.528;2023-03-13T07:58:09;4.68;;;1.85;;
27857;SDS011;16852;51.446;6.528;2023-03-13T08:00:11;5.63;;;2.10;;
27857;SDS011;16852;51.446;6.528;2023-03-13T08:02:15;4.10;;;1.75;;
27857;SDS011;16852;51.446;6.528;2023-03-13T08:04:16;8.77;;;2.55;;
27857;SDS011;16852;51.446;6.528;2023-03-13T08:06:17;9.25;;;2.10;;
27857;SDS011;16852;51.446;6.528;2023-03-13T08:08:20;9.00;;;2.10;;
27857;SDS011;16852;51.446;6.528;2023-03-13T08:10:20;9.68;;;2.33;;
27857;SDS011;16852;51.446;6.528;2023-03-13T08:12:21;7.07;;;1.85;;
27857;SDS011;16852;51.446;6.528;2023-03-13T08:14:22;3.75;;;1.95;;
27857;SDS011;16852;51.446;6.528;2023-03-13T08:16:23;8.27;;;2.28;;
27857;SDS011;16852;51.446;6.528;2023-03-13T08:18:25;9.02;;;2.47;;
27857;SDS011;16852;51.446;6.528;2023-03-13T08:20:26;6.88;;;2.13;;
27857;SDS011;16852;51.446;6.528;2023-03-13T08:22:27;6.45;;;2.22;;
27857;SDS011;16852;51.446;6.528;2023-03-13T08:24:28;7.63;;;2.33;;
27857;SDS011;16852;51.446;6.528;2023-03-13T08:26:29;7.25;;;2.30;;
27857;SDS011;16852;51.446;6.528;2023-03-13T08:28:29;9.10;;;2.65;;
27857;SDS011;16852;51.446;6.528;2023-03-13T08:30:30;6.38;;;2.38;;
27857;SDS011;16852;51.446;6.528;2023-03-13T08:32:34;7.47;;;1.90;;
27857;SDS011;16852;51.446;6.528;2023-03-13T08:34:37;4.93;;;2.17;;
27857;SDS011;16852;51.446;6.528;2023-03-13T08:36:37;5.55;;;2.15;;
27857;SDS011;16852;51.446;6.528;2023-03-13T08:38:38;8.60;;;2.35;;
27857;SDS011;16852;51.446;6.528;2023-03-13T08:40:41;6.25;;;2.30;;
27857;SDS011;16852;51.446;6.528;2023-03-13T08:42:41;9.15;;;3.22;;
27857;SDS011;16852;51.446;6.528;2023-03-13T08:44:42;7.63;;;2.40;;
27857;SDS011;16852;51.446;6.528;2023-03-13T08:46:43;10.48;;;1.98;;
27857;SDS011;16852;51.446;6.528;2023-03-13T08:48:44;10.30;;;2.60;;
27857;SDS011;16852;51.446;6.528;2023-03-13T08:53:09;12.38;;;3.10;;
27857;SDS011;16852;51.446;6.528;2023-03-13T08:55:10;11.15;;;2.40;;
27857;SDS011;16852;51.446;6.528;2023-03-13T08:57:11;9.90;;;2.22;;
27857;SDS011;16852;51.446;6.528;2023-03-13T08:59:11;5.35;;;2.05;;
27857;SDS011;16852;51.446;6.528;2023-03-13T09:03:15;9.05;;;2.20;;
27857;SDS011;16852;51.446;6.528;2023-03-13T09:05:16;8.90;;;2.63;;
27857;SDS011;16852;51.446;6.528;2023-03-13T09:07:17;7.47;;;2.20;;
27857;SDS011;16852;51.446;6.528;2023-03-13T09:09:18;6.38;;;2.08;;
27857;SDS011;16852;51.446;6.528;2023-03-13T09:11:19;6.00;;;2.00;;
27857;SDS011;16852;51.446;6.528;2023-03-13T09:13:20;7.18;;;2.55;;
27857;SDS011;16852;51.446;6.528;2023-03-13T09:15:21;6.25;;;2.05;;
27857;SDS011;16852;51.446;6.528;2023-03-13T09:17:21;4.68;;;2.33;;
27857;SDS011;16852;51.446;6.528;2023-03-13T09:19:22;5.82;;;2.35;;
27857;SDS011;16852;51.446;6.528;2023-03-13T09:21:27;4.40;;;2.00;;
27857;SDS011;16852;51.446;6.528;2023-03-13T09:23:34;6.15;;;2.17;;
27857;SDS011;16852;51.446;6.528;2023-03-13T09:25:36;5.22;;;2.20;;
27857;SDS011;16852;51.446;6.528;2023-03-13T09:29:38;4.75;;;2.30;;
27857;SDS011;16852;51.446;6.528;2023-03-13T09:31:41;6.55;;;2.15;;
27857;SDS011;16852;51.446;6.528;2023-03-13T09:33:42;6.22;;;1.92;;
27857;SDS011;16852;51.446;6.528;2023-03-13T09:35:44;4.32;;;1.80;;
27857;SDS011;16852;51.446;6.528;2023-03-13T09:37:49;6.28;;;1.98;;
27857;SDS011;16852;51.446;6.528;2023-03-13T09:39:50;5.38;;;1.70;;
27857;SDS011;16852;51.446;6.528;2023-03-13T09:48:56;4.10;;;1.63;;
27857;SDS011;16852;51.446;6.528;2023-03-13T09:51:11;5.35;;;1.90;;
27857;SDS011;16852;51.446;6.528;2023-03-13T09:53:37;5.15;;;1.90;;
27857;SDS011;16852;51.446;6.528;2023-03-13T09:55:46;6.20;;;2.28;;
27857;SDS011;16852;51.446;6.528;2023-03-13T09:57:51;4.10;;;2.03;;
27857;SDS011;16852;51.446;6.528;2023-03-13T09:59:59;9.60;;;4.32;;
27857;SDS011;16852;51.446;6.528;2023-03-13T10:02:54;7.00;;;2.42;;
27857;SDS011;16852;51.446;6.528;2023-03-13T10:04:40;6.15;;;1.92;;
27857;SDS011;16852;51.446;6.528;2023-03-13T10:06:52;5.72;;;1.95;;
27857;SDS011;16852;51.446;6.528;2023-03-13T10:08:52;5.75;;;1.75;;
27857;SDS011;16852;51.446;6.528;2023-03-13T10:13:18;2.53;;;1.43;;
27857;SDS011;16852;51.446;6.528;2023-03-13T10:17:37;5.55;;;1.80;;
27857;SDS011;16852;51.446;6.528;2023-03-13T10:19:39;6.20;;;1.70;;
27857;SDS011;16852;51.446;6.528;2023-03-13T10:21:43;5.22;;;1.50;;
27857;SDS011;16852;51.446;6.528;2023-03-13T10:23:54;3.38;;;1.38;;
27857;SDS011;16852;51.446;6.528;2023-03-13T10:25:59;4.03;;;1.50;;
27857;SDS011;16852;51.446;6.528;2023-03-13T10:28:00;4.05;;;1.50;;
27857;SDS011;16852;51.446;6.528;2023-03-13T10:30:01;4.07;;;1.52;;
27857;SDS011;16852;51.446;6.528;2023-03-13T10:32:03;3.97;;;1.70;;
27857;SDS011;16852;51.446;6.528;2023-03-13T10:34:09;5.00;;;1.55;;
27857;SDS011;16852;51.446;6.528;2023-03-13T10:36:12;3.35;;;1.35;;
27857;SDS011;16852;51.446;6.528;2023-03-13T10:38:20;2.67;;;1.25;;
27857;SDS011;16852;51.446;6.528;2023-03-13T10:40:25;4.20;;;1.50;;
27857;SDS011;16852;51.446;6.528;2023-03-13T10:42:27;6.18;;;1.70;;
27857;SDS011;16852;51.446;6.528;2023-03-13T10:44:32;5.05;;;1.88;;
27857;SDS011;16852;51.446;6.528;2023-03-13T10:46:34;2.63;;;1.17;;
27857;SDS011;16852;51.446;6.528;2023-03-13T10:48:38;3.35;;;1.40;;
27857;SDS011;16852;51.446;6.528;2023-03-13T10:50:44;3.53;;;1.45;;
27857;SDS011;16852;51.446;6.528;2023-03-13T10:52:47;4.75;;;1.42;;
27857;SDS011;16852;51.446;6.528;2023-03-13T10:54:48;3.92;;;1.10;;
27857;SDS011;16852;51.446;6.528;2023-03-13T10:56:49;2.80;;;1.05;;
27857;SDS011;16852;51.446;6.528;2023-03-13T10:58:51;3.47;;;1.27;;
27857;SDS011;16852;51.446;6.528;2023-03-13T11:00:52;1.42;;;0.90;;
27857;SDS011;16852;51.446;6.528;2023-03-13T11:03:17;3.88;;;1.20;;
27857;SDS011;16852;51.446;6.528;2023-03-13T11:07:27;2.05;;;1.00;;
27857;SDS011;16852;51.446;6.528;2023-03-13T11:09:31;2.95;;;1.20;;
27857;SDS011;16852;51.446;6.528;2023-03-13T11:11:42;3.05;;;1.13;;
27857;SDS011;16852;51.446;6.528;2023-03-13T11:13:49;3.67;;;1.00;;
27857;SDS011;16852;51.446;6.528;2023-03-13T11:15:51;2.22;;;1.00;;
27857;SDS011;16852;51.446;6.528;2023-03-13T11:18:06;2.75;;;1.10;;
27857;SDS011;16852;51.446;6.528;2023-03-13T11:20:27;3.55;;;0.90;;
27857;SDS011;16852;51.446;6.528;2023-03-13T11:22:38;1.80;;;1.20;;
27857;SDS011;16852;51.446;6.528;2023-03-13T11:24:56;5.03;;;1.25;;
27857;SDS011;16852;51.446;6.528;2023-03-13T11:27:24;4.38;;;0.98;;
27857;SDS011;16852;51.446;6.528;2023-03-13T11:29:45;3.17;;;1.02;;
27857;SDS011;16852;51.446;6.528;2023-03-13T11:32:02;2.70;;;1.10;;
27857;SDS011;16852;51.446;6.528;2023-03-13T11:41:00;3.88;;;1.02;;
27857;SDS011;16852;51.446;6.528;2023-03-13T11:43:15;3.55;;;1.15;;
27857;SDS011;16852;51.446;6.528;2023-03-13T11:52:53;1.20;;;0.70;;
27857;SDS011;16852;51.446;6.528;2023-03-13T11:55:08;2.63;;;0.70;;
27857;SDS011;16852;51.446;6.528;2023-03-13T11:57:27;1.92;;;0.88;;
27857;SDS011;16852;51.446;6.528;2023-03-13T11:59:44;1.90;;;0.80;;
27857;SDS011;16852;51.446;6.528;2023-03-13T12:01:58;1.00;;;0.60;;
27857;SDS011;16852;51.446;6.528;2023-03-13T12:04:05;1.70;;;0.75;;
27857;SDS011;16852;51.446;6.528;2023-03-13T12:06:24;2.13;;;0.60;;
27857;SDS011;16852;51.446;6.528;2023-03-13T12:10:43;3.05;;;0.73;;
27857;SDS011;16852;51.446;6.528;2023-03-13T12:15:15;4.13;;;1.13;;
27857;SDS011;16852;51.446;6.528;2023-03-13T12:21:49;3.72;;;0.90;;
27857;SDS011;16852;51.446;6.528;2023-03-13T12:26:03;1.85;;;0.90;;
27857;SDS011;16852;51.446;6.528;2023-03-13T12:28:14;1.58;;;0.90;;
27857;SDS011;16852;51.446;6.528;2023-03-13T12:32:41;2.20;;;0.75;;
27857;SDS011;16852;51.446;6.528;2023-03-13T12:35:06;2.28;;;0.80;;
27857;SDS011;16852;51.446;6.528;2023-03-13T12:42:35;1.15;;;0.80;;
27857;SDS011;16852;51.446;6.528;2023-03-13T12:44:46;3.35;;;0.98;;
27857;SDS011;16852;51.446;6.528;2023-03-13T12:49:32;4.03;;;1.35;;
27857;SDS011;16852;51.446;6.528;2023-03-13T12:54:24;2.90;;;1.30;;
27857;SDS011;16852;51.446;6.528;2023-03-13T12:56:43;6.80;;;1.33;;
27857;SDS011;16852;51.446;6.528;2023-03-13T12:59:18;4.20;;;1.00;;
27857;SDS011;16852;51.446;6.528;2023-03-13T13:05:35;3.35;;;0.90;;
27857;SDS011;16852;51.446;6.528;2023-03-13T13:07:36;1.45;;;0.70;;
27857;SDS011;16852;51.446;6.528;2023-03-13T13:09:38;2.05;;;0.70;;
27857;SDS011;16852;51.446;6.528;2023-03-13T13:12:22;1.27;;;0.63;;
27857;SDS011;16852;51.446;6.528;2023-03-13T13:16:26;1.48;;;0.40;;
27857;SDS011;16852;51.446;6.528;2023-03-13T13:18:29;0.82;;;0.57;;
27857;SDS011;16852;51.446;6.528;2023-03-13T13:20:35;1.40;;;0.50;;
27857;SDS011;16852;51.446;6.528;2023-03-13T13:24:49;1.13;;;0.50;;
27857;SDS011;16852;51.446;6.528;2023-03-13T13:26:50;2.10;;;0.63;;
27857;SDS011;16852;51.446;6.528;2023-03-13T13:28:52;3.78;;;0.50;;
27857;SDS011;16852;51.446;6.528;2023-03-13T13:30:53;3.85;;;0.82;;
27857;SDS011;16852;51.446;6.528;2023-03-13T13:33:40;1.45;;;0.60;;